sensor_id;sensor_type;location;lat;lon;timestamp;pressure;altitude;pressure_sealevel;temperature;humidity
18275;BME280;19470;49.322;7.218;2023-11-21T00:01:01;97995.94;;;15.79;90.87
18275;BME280;19470;49.322;7.218;2023-11-21T00:03:29;97994.22;;;15.32;94.73
18275;BME280;19470;49.322;7.218;2023-11-21T00:05:56;97999.06;;;15.11;93.44
18275;BME280;19470;49.322;7.218;2023-11-21T00:08:22;97995.88;;;15.09;96.73
18275;BME280;19470;49.322;7.218;2023-11-21T00:10:50;98002.00;;;14.67;97.87
18275;BME280;19470;49.322;7.218;2023-11-21T00:13:17;97992.03;;;14.77;100.00
18275;BME280;19470;49.322;7.218;2023-11-21T00:15:43;97993.78;;;15.63;93.08
18275;BME280;19470;49.322;7.218;2023-11-21T00:18:10;97992.47;;;15.41;93.90
18275;BME280;19470;49.322;7.218;2023-11-21T00:20:36;97995.88;;;15.09;97.27
18275;BME280;19470;49.322;7.218;2023-11-21T00:23:03;97991.63;;;14.65;97.49
18275;BME280;19470;49.322;7.218;2023-11-21T00:25:29;97995.25;;;14.50;100.00
18275;BME280;19470;49.322;7.218;2023-11-21T00:27:58;97999.56;;;14.70;100.00
18275;BME280;19470;49.322;7.218;2023-11-21T00:30:26;97986.66;;;15.20;96.86
18275;BME280;19470;49.322;7.218;2023-11-21T00:32:54;97996.25;;;15.40;95.20
18275;BME280;19470;49.322;7.218;2023-11-21T00:35:20;97993.13;;;15.14;96.71
18275;BME280;19470;49.322;7.218;2023-11-21T00:37:46;97996.97;;;15.65;92.97
18275;BME280;19470;49.322;7.218;2023-11-21T00:40:15;97991.97;;;14.82;96.18
18275;BME280;19470;49.322;7.218;2023-11-21T00:42:44;98002.50;;;14.93;97.60
18275;BME280;19470;49.322;7.218;2023-11-21T00:45:12;97993.63;;;14.97;96.92
18275;BME280;19470;49.322;7.218;2023-11-21T00:47:39;98007.66;;;14.07;100.00
18275;BME280;19470;49.322;7.218;2023-11-21T00:50:06;98000.50;;;14.79;98.71
18275;BME280;19470;49.322;7.218;2023-11-21T00:52:33;97997.13;;;14.74;97.40
18275;BME280;19470;49.322;7.218;2023-11-21T00:54:59;98001.34;;;14.99;97.27
18275;BME280;19470;49.322;7.218;2023-11-21T00:57:26;98002.47;;;14.74;98.60
18275;BME280;19470;49.322;7.218;2023-11-21T00:59:53;98005.03;;;15.03;97.45
18275;BME280;19470;49.322;7.218;2023-11-21T01:02:21;97996.69;;;14.86;97.29
18275;BME280;19470;49.322;7.218;2023-11-21T01:04:47;98003.50;;;14.54;98.38
18275;BME280;19470;49.322;7.218;2023-11-21T01:07:14;98012.34;;;14.15;100.00
18275;BME280;19470;49.322;7.218;2023-11-21T01:09:41;98004.22;;;14.60;99.57
18275;BME280;19470;49.322;7.218;2023-11-21T01:12:09;98014.19;;;14.73;97.62
18275;BME280;19470;49.322;7.218;2023-11-21T01:14:36;98005.81;;;15.22;95.31
18275;BME280;19470;49.322;7.218;2023-11-21T01:17:03;98004.59;;;15.33;95.07
18275;BME280;19470;49.322;7.218;2023-11-21T01:19:32;98001.38;;;14.51;100.00
18275;BME280;19470;49.322;7.218;2023-11-21T01:21:58;98011.16;;;15.22;95.97
18275;BME280;19470;49.322;7.218;2023-11-21T01:24:25;98009.19;;;15.09;96.79
18275;BME280;19470;49.322;7.218;2023-11-21T01:26:51;98012.59;;;14.72;99.28
18275;BME280;19470;49.322;7.218;2023-11-21T01:29:17;98008.94;;;15.29;95.48
18275;BME280;19470;49.322;7.218;2023-11-21T01:31:45;98026.00;;;14.38;100.00
18275;BME280;19470;49.322;7.218;2023-11-21T01:34:12;98017.25;;;14.32;100.00
18275;BME280;19470;49.322;7.218;2023-11-21T01:36:40;98018.22;;;14.17;100.00
18275;BME280;19470;49.322;7.218;2023-11-21T01:39:07;98015.19;;;15.01;95.98
18275;BME280;19470;49.322;7.218;2023-11-21T01:41:36;98026.38;;;14.55;99.60
18275;BME280;19470;49.322;7.218;2023-11-21T01:44:02;98021.72;;;14.90;97.61
18275;BME280;19470;49.322;7.218;2023-11-21T01:46:32;98025.66;;;14.73;97.54
18275;BME280;19470;49.322;7.218;2023-11-21T01:49:00;98018.78;;;15.10;95.27
18275;BME280;19470;49.322;7.218;2023-11-21T01:51:26;98028.38;;;14.68;100.00
18275;BME280;19470;49.322;7.218;2023-11-21T01:53:55;98027.72;;;15.19;94.19
18275;BME280;19470;49.322;7.218;2023-11-21T01:56:21;98030.06;;;14.83;97.39
18275;BME280;19470;49.322;7.218;2023-11-21T01:58:48;98029.31;;;15.01;95.91
18275;BME280;19470;49.322;7.218;2023-11-21T02:01:17;98023.66;;;14.84;96.97
18275;BME280;19470;49.322;7.218;2023-11-21T02:03:59;98028.22;;;13.96;100.00
18275;BME280;19470;49.322;7.218;2023-11-21T02:06:26;98020.06;;;14.46;100.00
18275;BME280;19470;49.322;7.218;2023-11-21T02:08:57;98025.06;;;13.94;100.00
18275;BME280;19470;49.322;7.218;2023-11-21T02:11:24;98019.50;;;14.49;99.78
18275;BME280;19470;49.322;7.218;2023-11-21T02:13:52;98027.91;;;14.61;99.98
18275;BME280;19470;49.322;7.218;2023-11-21T02:16:19;98022.47;;;14.71;96.98
18275;BME280;19470;49.322;7.218;2023-11-21T02:18:46;98032.41;;;14.37;98.61
18275;BME280;19470;49.322;7.218;2023-11-21T02:21:13;98018.72;;;14.96;96.37
18275;BME280;19470;49.322;7.218;2023-11-21T02:23:41;98028.91;;;14.41;100.00
18275;BME280;19470;49.322;7.218;2023-11-21T02:26:09;98017.78;;;15.06;95.63
18275;BME280;19470;49.322;7.218;2023-11-21T02:28:36;98027.84;;;14.66;97.58
18275;BME280;19470;49.322;7.218;2023-11-21T02:31:04;98018.66;;;14.24;99.67
18275;BME280;19470;49.322;7.218;2023-11-21T02:33:29;98021.50;;;15.05;95.18
18275;BME280;19470;49.322;7.218;2023-11-21T02:35:59;98031.84;;;14.40;96.53
18275;BME280;19470;49.322;7.218;2023-11-21T02:38:25;98020.94;;;14.65;97.58
18275;BME280;19470;49.322;7.218;2023-11-21T02:40:53;98022.31;;;15.05;93.64
18275;BME280;19470;49.322;7.218;2023-11-21T02:43:20;98021.44;;;15.10;92.42
18275;BME280;19470;49.322;7.218;2023-11-21T02:45:46;98021.03;;;15.59;90.29
18275;BME280;19470;49.322;7.218;2023-11-21T02:48:13;98029.91;;;14.50;96.73
18275;BME280;19470;49.322;7.218;2023-11-21T02:50:39;98025.03;;;15.24;91.47
18275;BME280;19470;49.322;7.218;2023-11-21T02:53:05;98029.47;;;15.48;91.80
18275;BME280;19470;49.322;7.218;2023-11-21T02:55:32;98035.63;;;15.29;90.96
18275;BME280;19470;49.322;7.218;2023-11-21T02:58:02;98037.63;;;14.47;97.96
18275;BME280;19470;49.322;7.218;2023-11-21T03:00:29;98026.66;;;15.58;91.51
18275;BME280;19470;49.322;7.218;2023-11-21T03:02:56;98026.88;;;15.43;91.21
18275;BME280;19470;49.322;7.218;2023-11-21T03:05:22;98028.88;;;15.89;88.43
18275;BME280;19470;49.322;7.218;2023-11-21T03:07:49;98028.56;;;14.96;92.86
18275;BME280;19470;49.322;7.218;2023-11-21T03:10:15;98027.97;;;15.42;89.96
18275;BME280;19470;49.322;7.218;2023-11-21T03:12:42;98032.56;;;15.17;91.82
18275;BME280;19470;49.322;7.218;2023-11-21T03:15:11;98036.56;;;14.96;91.90
18275;BME280;19470;49.322;7.218;2023-11-21T03:17:37;98039.06;;;15.11;93.63
18275;BME280;19470;49.322;7.218;2023-11-21T03:20:05;98039.63;;;15.27;91.63
18275;BME280;19470;49.322;7.218;2023-11-21T03:22:35;98045.56;;;15.00;93.89
18275;BME280;19470;49.322;7.218;2023-11-21T03:25:02;98048.25;;;15.00;94.79
18275;BME280;19470;49.322;7.218;2023-11-21T03:27:30;98054.00;;;14.64;96.83
18275;BME280;19470;49.322;7.218;2023-11-21T03:29:56;98058.84;;;15.05;92.58
18275;BME280;19470;49.322;7.218;2023-11-21T03:32:24;98053.34;;;15.20;91.80
18275;BME280;19470;49.322;7.218;2023-11-21T03:34:55;98057.00;;;15.67;90.01
18275;BME280;19470;49.322;7.218;2023-11-21T03:37:23;98057.84;;;15.63;88.98
18275;BME280;19470;49.322;7.218;2023-11-21T03:39:49;98060.75;;;15.23;92.81
18275;BME280;19470;49.322;7.218;2023-11-21T03:42:16;98056.72;;;15.26;93.40
18275;BME280;19470;49.322;7.218;2023-11-21T03:44:43;98057.94;;;14.67;96.86
18275;BME280;19470;49.322;7.218;2023-11-21T03:47:09;98050.09;;;15.42;90.94
18275;BME280;19470;49.322;7.218;2023-11-21T03:49:37;98059.91;;;15.47;92.46
18275;BME280;19470;49.322;7.218;2023-11-21T03:52:05;98069.47;;;14.62;97.98
18275;BME280;19470;49.322;7.218;2023-11-21T03:54:32;98063.47;;;15.18;91.55
18275;BME280;19470;49.322;7.218;2023-11-21T03:56:59;98065.06;;;15.81;89.15
18275;BME280;19470;49.322;7.218;2023-11-21T03:59:25;98064.81;;;15.96;87.50
18275;BME280;19470;49.322;7.218;2023-11-21T04:01:52;98067.72;;;16.14;85.30
18275;BME280;19470;49.322;7.218;2023-11-21T04:04:21;98072.34;;;15.75;89.15
18275;BME280;19470;49.322;7.218;2023-11-21T04:06:48;98071.66;;;16.35;85.13
18275;BME280;19470;49.322;7.218;2023-11-21T04:09:17;98075.16;;;16.17;87.18
18275;BME280;19470;49.322;7.218;2023-11-21T04:11:43;98076.78;;;15.99;86.88
18275;BME280;19470;49.322;7.218;2023-11-21T04:14:10;98075.66;;;14.81;93.37
18275;BME280;19470;49.322;7.218;2023-11-21T04:16:37;98078.13;;;15.21;90.93
18275;BME280;19470;49.322;7.218;2023-11-21T04:19:03;98083.19;;;15.41;90.46
18275;BME280;19470;49.322;7.218;2023-11-21T04:21:30;98093.44;;;15.34;93.12
18275;BME280;19470;49.322;7.218;2023-11-21T04:23:59;98087.06;;;15.92;87.90
18275;BME280;19470;49.322;7.218;2023-11-21T04:26:26;98094.09;;;15.45;90.95
18275;BME280;19470;49.322;7.218;2023-11-21T04:28:52;98097.78;;;15.49;90.88
18275;BME280;19470;49.322;7.218;2023-11-21T04:31:19;98104.78;;;15.45;91.85
18275;BME280;19470;49.322;7.218;2023-11-21T04:33:45;98102.19;;;16.15;87.78
18275;BME280;19470;49.322;7.218;2023-11-21T04:36:12;98105.50;;;16.07;88.50
18275;BME280;19470;49.322;7.218;2023-11-21T04:38:38;98105.41;;;15.37;90.69
18275;BME280;19470;49.322;7.218;2023-11-21T04:41:07;98116.94;;;14.60;96.04
18275;BME280;19470;49.322;7.218;2023-11-21T04:43:34;98123.56;;;15.77;90.80
18275;BME280;19470;49.322;7.218;2023-11-21T04:46:00;98124.03;;;16.17;87.52
18275;BME280;19470;49.322;7.218;2023-11-21T04:48:27;98121.75;;;16.10;87.65
18275;BME280;19470;49.322;7.218;2023-11-21T04:50:53;98131.94;;;15.90;86.54
18275;BME280;19470;49.322;7.218;2023-11-21T04:53:20;98131.44;;;15.45;89.58
18275;BME280;19470;49.322;7.218;2023-11-21T04:55:46;98127.81;;;16.16;87.72
18275;BME280;19470;49.322;7.218;2023-11-21T04:58:15;98137.88;;;15.87;86.21
18275;BME280;19470;49.322;7.218;2023-11-21T05:00:41;98134.09;;;16.06;87.44
18275;BME280;19470;49.322;7.218;2023-11-21T05:03:09;98134.06;;;16.25;87.27
18275;BME280;19470;49.322;7.218;2023-11-21T05:05:36;98139.16;;;16.41;85.50
18275;BME280;19470;49.322;7.218;2023-11-21T05:08:03;98142.25;;;16.48;85.31
18275;BME280;19470;49.322;7.218;2023-11-21T05:10:29;98143.09;;;16.29;86.34
18275;BME280;19470;49.322;7.218;2023-11-21T05:12:56;98148.25;;;16.40;84.27
18275;BME280;19470;49.322;7.218;2023-11-21T05:15:27;98149.44;;;16.66;84.04
18275;BME280;19470;49.322;7.218;2023-11-21T05:17:54;98158.28;;;16.48;83.97
18275;BME280;19470;49.322;7.218;2023-11-21T05:20:22;98169.19;;;16.19;85.85
18275;BME280;19470;49.322;7.218;2023-11-21T05:22:49;98164.63;;;16.00;87.09
18275;BME280;19470;49.322;7.218;2023-11-21T05:25:16;98166.81;;;16.50;84.01
18275;BME280;19470;49.322;7.218;2023-11-21T05:27:43;98176.44;;;16.32;85.44
18275;BME280;19470;49.322;7.218;2023-11-21T05:30:10;98172.84;;;16.04;85.83
18275;BME280;19470;49.322;7.218;2023-11-21T05:32:39;98179.25;;;16.41;85.42
18275;BME280;19470;49.322;7.218;2023-11-21T05:35:07;98180.78;;;16.28;84.18
18275;BME280;19470;49.322;7.218;2023-11-21T05:37:37;98179.34;;;16.17;86.13
18275;BME280;19470;49.322;7.218;2023-11-21T05:40:05;98187.66;;;16.34;85.05
18275;BME280;19470;49.322;7.218;2023-11-21T05:42:32;98190.03;;;16.17;85.83
18275;BME280;19470;49.322;7.218;2023-11-21T05:44:58;98181.84;;;16.27;84.61
18275;BME280;19470;49.322;7.218;2023-11-21T05:47:35;98190.59;;;15.76;84.37
18275;BME280;19470;49.322;7.218;2023-11-21T05:50:04;98197.47;;;16.20;84.80
18275;BME280;19470;49.322;7.218;2023-11-21T05:52:36;98197.38;;;16.44;83.10
18275;BME280;19470;49.322;7.218;2023-11-21T05:55:03;98189.78;;;16.51;83.58
18275;BME280;19470;49.322;7.218;2023-11-21T05:57:32;98190.53;;;16.38;81.90
18275;BME280;19470;49.322;7.218;2023-11-21T05:59:59;98200.50;;;15.94;84.44
18275;BME280;19470;49.322;7.218;2023-11-21T06:02:25;98208.16;;;15.58;87.89
18275;BME280;19470;49.322;7.218;2023-11-21T06:04:52;98213.13;;;16.07;85.33
18275;BME280;19470;49.322;7.218;2023-11-21T06:07:20;98199.19;;;16.29;84.04
18275;BME280;19470;49.322;7.218;2023-11-21T06:09:46;98206.19;;;16.44;82.48
18275;BME280;19470;49.322;7.218;2023-11-21T06:12:15;98211.09;;;15.80;84.83
18275;BME280;19470;49.322;7.218;2023-11-21T06:14:42;98222.41;;;15.72;85.52
18275;BME280;19470;49.322;7.218;2023-11-21T06:17:08;98219.94;;;16.00;85.78
18275;BME280;19470;49.322;7.218;2023-11-21T06:19:35;98223.88;;;16.40;83.32
18275;BME280;19470;49.322;7.218;2023-11-21T06:22:01;98227.31;;;15.84;85.10
18275;BME280;19470;49.322;7.218;2023-11-21T06:24:29;98230.63;;;16.19;83.49
18275;BME280;19470;49.322;7.218;2023-11-21T06:26:56;98233.88;;;15.73;86.26
18275;BME280;19470;49.322;7.218;2023-11-21T06:29:22;98233.63;;;15.21;91.33
18275;BME280;19470;49.322;7.218;2023-11-21T06:31:49;98231.66;;;15.99;86.32
18275;BME280;19470;49.322;7.218;2023-11-21T06:34:15;98239.56;;;15.66;88.05
18275;BME280;19470;49.322;7.218;2023-11-21T06:36:42;98233.34;;;16.14;86.06
18275;BME280;19470;49.322;7.218;2023-11-21T06:39:08;98245.44;;;15.63;87.09
18275;BME280;19470;49.322;7.218;2023-11-21T06:41:36;98255.56;;;15.66;88.43
18275;BME280;19470;49.322;7.218;2023-11-21T06:44:04;98262.41;;;15.24;93.81
18275;BME280;19470;49.322;7.218;2023-11-21T06:46:30;98263.91;;;14.72;94.52
18275;BME280;19470;49.322;7.218;2023-11-21T06:48:57;98266.16;;;14.60;96.82
18275;BME280;19470;49.322;7.218;2023-11-21T06:51:23;98268.13;;;15.13;92.82
18275;BME280;19470;49.322;7.218;2023-11-21T06:53:50;98277.34;;;15.25;90.80
18275;BME280;19470;49.322;7.218;2023-11-21T06:56:16;98272.94;;;15.11;90.63
18275;BME280;19470;49.322;7.218;2023-11-21T06:58:45;98279.09;;;14.72;91.02
18275;BME280;19470;49.322;7.218;2023-11-21T07:01:12;98282.88;;;14.21;96.63
18275;BME280;19470;49.322;7.218;2023-11-21T07:03:38;98286.38;;;15.29;89.74
18275;BME280;19470;49.322;7.218;2023-11-21T07:06:06;98287.84;;;15.41;87.47
18275;BME280;19470;49.322;7.218;2023-11-21T07:08:33;98286.50;;;15.72;86.04
18275;BME280;19470;49.322;7.218;2023-11-21T07:10:59;98294.88;;;15.84;85.40
18275;BME280;19470;49.322;7.218;2023-11-21T07:13:28;98304.56;;;15.99;85.33
18275;BME280;19470;49.322;7.218;2023-11-21T07:15:56;98304.81;;;16.03;84.31
18275;BME280;19470;49.322;7.218;2023-11-21T07:18:22;98310.09;;;16.08;84.42
18275;BME280;19470;49.322;7.218;2023-11-21T07:20:49;98317.06;;;16.04;84.80
18275;BME280;19470;49.322;7.218;2023-11-21T07:23:15;98324.25;;;15.84;85.69
18275;BME280;19470;49.322;7.218;2023-11-21T07:25:45;98336.41;;;15.96;83.74
18275;BME280;19470;49.322;7.218;2023-11-21T07:28:12;98336.75;;;15.02;92.84
18275;BME280;19470;49.322;7.218;2023-11-21T07:30:38;98347.06;;;14.74;93.68
18275;BME280;19470;49.322;7.218;2023-11-21T07:33:06;98352.13;;;15.15;90.40
18275;BME280;19470;49.322;7.218;2023-11-21T07:35:33;98361.03;;;15.64;88.84
18275;BME280;19470;49.322;7.218;2023-11-21T07:38:00;98356.78;;;15.28;88.03
18275;BME280;19470;49.322;7.218;2023-11-21T07:40:26;98357.66;;;15.19;90.90
18275;BME280;19470;49.322;7.218;2023-11-21T07:42:53;98365.19;;;15.75;85.30
18275;BME280;19470;49.322;7.218;2023-11-21T07:45:22;98364.66;;;15.78;85.53
18275;BME280;19470;49.322;7.218;2023-11-21T07:47:49;98370.91;;;15.92;84.56
18275;BME280;19470;49.322;7.218;2023-11-21T07:50:17;98370.81;;;15.10;85.21
18275;BME280;19470;49.322;7.218;2023-11-21T07:52:44;98369.47;;;15.13;85.56
18275;BME280;19470;49.322;7.218;2023-11-21T07:55:10;98371.81;;;15.82;82.34
18275;BME280;19470;49.322;7.218;2023-11-21T07:57:37;98381.78;;;15.72;82.68
18275;BME280;19470;49.322;7.218;2023-11-21T08:00:05;98370.53;;;15.99;80.81
18275;BME280;19470;49.322;7.218;2023-11-21T08:02:34;98378.78;;;16.02;81.74
18275;BME280;19470;49.322;7.218;2023-11-21T08:05:00;98387.84;;;16.06;80.49
18275;BME280;19470;49.322;7.218;2023-11-21T08:07:28;98389.31;;;15.94;81.13
18275;BME280;19470;49.322;7.218;2023-11-21T08:09:55;98387.34;;;15.75;79.59
18275;BME280;19470;49.322;7.218;2023-11-21T08:12:22;98386.44;;;15.85;80.30
18275;BME280;19470;49.322;7.218;2023-11-21T08:14:49;98391.47;;;15.92;81.11
18275;BME280;19470;49.322;7.218;2023-11-21T08:17:15;98394.19;;;15.87;82.12
18275;BME280;19470;49.322;7.218;2023-11-21T08:19:42;98383.16;;;14.46;86.60
18275;BME280;19470;49.322;7.218;2023-11-21T08:22:14;98386.78;;;14.71;90.28
18275;BME280;19470;49.322;7.218;2023-11-21T08:24:42;98395.94;;;15.72;83.25
18275;BME280;19470;49.322;7.218;2023-11-21T08:27:09;98401.25;;;16.25;80.67
18275;BME280;19470;49.322;7.218;2023-11-21T08:29:35;98395.44;;;16.42;80.34
18275;BME280;19470;49.322;7.218;2023-11-21T08:32:02;98401.91;;;16.36;80.35
18275;BME280;19470;49.322;7.218;2023-11-21T08:34:30;98411.94;;;16.25;80.11
18275;BME280;19470;49.322;7.218;2023-11-21T08:36:57;98414.88;;;16.48;80.24
18275;BME280;19470;49.322;7.218;2023-11-21T08:39:23;98415.03;;;16.56;78.44
18275;BME280;19470;49.322;7.218;2023-11-21T08:41:53;98412.75;;;16.45;79.83
18275;BME280;19470;49.322;7.218;2023-11-21T08:44:19;98416.00;;;16.42;80.07
18275;BME280;19470;49.322;7.218;2023-11-21T08:46:46;98420.06;;;16.15;81.10
18275;BME280;19470;49.322;7.218;2023-11-21T08:49:13;98417.50;;;16.53;78.72
18275;BME280;19470;49.322;7.218;2023-11-21T08:51:40;98423.63;;;16.53;79.02
18275;BME280;19470;49.322;7.218;2023-11-21T08:54:07;98423.50;;;16.64;80.09
18275;BME280;19470;49.322;7.218;2023-11-21T08:56:34;98431.13;;;16.27;81.31
18275;BME280;19470;49.322;7.218;2023-11-21T08:59:02;98430.16;;;16.66;79.38
18275;BME280;19470;49.322;7.218;2023-11-21T09:01:28;98427.28;;;15.22;83.01
18275;BME280;19470;49.322;7.218;2023-11-21T09:03:56;98430.94;;;15.95;81.82
18275;BME280;19470;49.322;7.218;2023-11-21T09:06:22;98438.00;;;15.86;81.31
18275;BME280;19470;49.322;7.218;2023-11-21T09:08:49;98434.41;;;16.67;78.57
18275;BME280;19470;49.322;7.218;2023-11-21T09:11:16;98436.19;;;16.96;77.67
18275;BME280;19470;49.322;7.218;2023-11-21T09:13:43;98439.44;;;16.74;77.34
18275;BME280;19470;49.322;7.218;2023-11-21T09:16:11;98438.78;;;16.82;76.39
18275;BME280;19470;49.322;7.218;2023-11-21T09:18:37;98443.38;;;16.57;78.75
18275;BME280;19470;49.322;7.218;2023-11-21T09:21:05;98441.69;;;16.85;77.17
18275;BME280;19470;49.322;7.218;2023-11-21T09:23:31;98449.69;;;17.42;75.51
18275;BME280;19470;49.322;7.218;2023-11-21T09:25:58;98454.00;;;17.05;74.31
18275;BME280;19470;49.322;7.218;2023-11-21T09:28:26;98457.59;;;17.15;74.22
18275;BME280;19470;49.322;7.218;2023-11-21T09:30:52;98444.22;;;16.77;75.17
18275;BME280;19470;49.322;7.218;2023-11-21T09:33:20;98455.50;;;17.30;73.72
18275;BME280;19470;49.322;7.218;2023-11-21T09:35:47;98445.19;;;17.56;72.91
18275;BME280;19470;49.322;7.218;2023-11-21T09:38:14;98451.75;;;17.64;71.32
18275;BME280;19470;49.322;7.218;2023-11-21T09:40:41;98459.50;;;17.66;71.55
18275;BME280;19470;49.322;7.218;2023-11-21T09:43:09;98461.25;;;17.56;72.14
18275;BME280;19470;49.322;7.218;2023-11-21T09:45:44;98473.59;;;17.20;72.61
18275;BME280;19470;49.322;7.218;2023-11-21T09:48:11;98482.78;;;16.71;71.83
18275;BME280;19470;49.322;7.218;2023-11-21T09:50:41;98479.50;;;17.35;72.93
18275;BME280;19470;49.322;7.218;2023-11-21T09:53:13;98476.31;;;17.52;71.08
18275;BME280;19470;49.322;7.218;2023-11-21T09:55:42;98481.97;;;17.13;72.04
18275;BME280;19470;49.322;7.218;2023-11-21T09:58:09;98485.50;;;16.90;73.04
18275;BME280;19470;49.322;7.218;2023-11-21T10:00:40;98493.66;;;16.98;73.40
18275;BME280;19470;49.322;7.218;2023-11-21T10:03:07;98499.16;;;17.07;72.62
18275;BME280;19470;49.322;7.218;2023-11-21T10:05:34;98496.88;;;17.19;72.34
18275;BME280;19470;49.322;7.218;2023-11-21T10:08:02;98497.38;;;17.21;71.38
18275;BME280;19470;49.322;7.218;2023-11-21T10:10:32;98503.88;;;17.15;71.13
18275;BME280;19470;49.322;7.218;2023-11-21T10:13:02;98499.47;;;17.05;72.23
18275;BME280;19470;49.322;7.218;2023-11-21T10:15:33;98509.75;;;16.74;72.01
18275;BME280;19470;49.322;7.218;2023-11-21T10:18:02;98507.72;;;17.28;71.55
18275;BME280;19470;49.322;7.218;2023-11-21T10:20:29;98520.19;;;16.76;73.58
18275;BME280;19470;49.322;7.218;2023-11-21T10:22:56;98522.03;;;16.99;73.18
18275;BME280;19470;49.322;7.218;2023-11-21T10:25:24;98513.41;;;17.59;72.02
18275;BME280;19470;49.322;7.218;2023-11-21T10:27:57;98522.22;;;17.46;72.37
18275;BME280;19470;49.322;7.218;2023-11-21T10:30:28;98519.66;;;17.73;71.15
18275;BME280;19470;49.322;7.218;2023-11-21T10:32:58;98514.81;;;17.75;70.30
18275;BME280;19470;49.322;7.218;2023-11-21T10:35:38;98520.66;;;17.40;69.37
18275;BME280;19470;49.322;7.218;2023-11-21T10:38:05;98519.88;;;17.77;68.29
18275;BME280;19470;49.322;7.218;2023-11-21T10:40:37;98523.38;;;17.91;69.05
18275;BME280;19470;49.322;7.218;2023-11-21T10:43:06;98520.00;;;17.67;67.74
18275;BME280;19470;49.322;7.218;2023-11-21T10:45:34;98512.97;;;17.90;68.65
18275;BME280;19470;49.322;7.218;2023-11-21T10:48:05;98524.41;;;17.01;69.90
18275;BME280;19470;49.322;7.218;2023-11-21T10:50:32;98525.75;;;17.22;70.58
18275;BME280;19470;49.322;7.218;2023-11-21T10:53:01;98520.56;;;17.82;70.02
18275;BME280;19470;49.322;7.218;2023-11-21T10:55:28;98520.09;;;17.80;68.71
18275;BME280;19470;49.322;7.218;2023-11-21T10:57:58;98525.66;;;17.84;69.15
18275;BME280;19470;49.322;7.218;2023-11-21T11:00:26;98516.28;;;18.00;68.35
18275;BME280;19470;49.322;7.218;2023-11-21T11:02:53;98517.81;;;17.87;68.82
18275;BME280;19470;49.322;7.218;2023-11-21T11:05:21;98519.75;;;18.01;68.26
18275;BME280;19470;49.322;7.218;2023-11-21T11:07:50;98526.69;;;17.13;69.26
18275;BME280;19470;49.322;7.218;2023-11-21T11:10:19;98520.81;;;17.29;67.76
18275;BME280;19470;49.322;7.218;2023-11-21T11:12:48;98523.34;;;18.10;67.06
18275;BME280;19470;49.322;7.218;2023-11-21T11:15:16;98520.47;;;18.20;66.06
18275;BME280;19470;49.322;7.218;2023-11-21T11:17:45;98524.72;;;17.56;66.36
18275;BME280;19470;49.322;7.218;2023-11-21T11:20:12;98519.28;;;17.80;66.50
18275;BME280;19470;49.322;7.218;2023-11-21T11:22:45;98511.03;;;18.09;65.79
18275;BME280;19470;49.322;7.218;2023-11-21T11:25:33;98527.47;;;16.65;68.36
18275;BME280;19470;49.322;7.218;2023-11-21T11:28:04;98514.56;;;17.72;67.94
18275;BME280;19470;49.322;7.218;2023-11-21T11:30:41;98517.97;;;18.70;65.10
18275;BME280;19470;49.322;7.218;2023-11-21T11:33:23;98523.00;;;18.44;64.56
18275;BME280;19470;49.322;7.218;2023-11-21T11:35:57;98521.84;;;18.64;63.44
18275;BME280;19470;49.322;7.218;2023-11-21T11:38:31;98516.56;;;18.86;62.26
18275;BME280;19470;49.322;7.218;2023-11-21T11:41:01;98509.78;;;18.48;62.15
18275;BME280;19470;49.322;7.218;2023-11-21T11:43:29;98517.47;;;18.82;62.41
18275;BME280;19470;49.322;7.218;2023-11-21T11:46:17;98516.44;;;19.05;61.51
18275;BME280;19470;49.322;7.218;2023-11-21T11:48:46;98515.09;;;18.80;63.82
18275;BME280;19470;49.322;7.218;2023-11-21T11:51:15;98516.50;;;18.92;61.36
18275;BME280;19470;49.322;7.218;2023-11-21T11:53:45;98516.22;;;19.29;60.86
18275;BME280;19470;49.322;7.218;2023-11-21T11:56:23;98503.16;;;19.73;58.87
18275;BME280;19470;49.322;7.218;2023-11-21T11:58:52;98508.34;;;18.83;61.28
18275;BME280;19470;49.322;7.218;2023-11-21T12:01:21;98516.50;;;18.78;61.63
18275;BME280;19470;49.322;7.218;2023-11-21T12:06:51;98513.78;;;19.41;58.27
18275;BME280;19470;49.322;7.218;2023-11-21T12:09:18;98524.88;;;19.26;60.99
18275;BME280;19470;49.322;7.218;2023-11-21T12:11:45;98521.69;;;19.60;58.45
18275;BME280;19470;49.322;7.218;2023-11-21T12:14:13;98524.09;;;19.62;57.44
18275;BME280;19470;49.322;7.218;2023-11-21T12:16:41;98523.06;;;19.35;58.56
18275;BME280;19470;49.322;7.218;2023-11-21T12:19:09;98524.94;;;19.94;56.71
18275;BME280;19470;49.322;7.218;2023-11-21T12:21:38;98516.94;;;20.33;56.06
18275;BME280;19470;49.322;7.218;2023-11-21T12:24:06;98533.41;;;21.29;53.84
18275;BME280;19470;49.322;7.218;2023-11-21T12:26:34;98526.38;;;21.02;52.78
18275;BME280;19470;49.322;7.218;2023-11-21T12:29:01;98534.00;;;21.17;53.41
18275;BME280;19470;49.322;7.218;2023-11-21T12:31:29;98539.09;;;20.70;53.31
18275;BME280;19470;49.322;7.218;2023-11-21T12:33:57;98541.97;;;20.74;54.63
18275;BME280;19470;49.322;7.218;2023-11-21T12:36:24;98537.44;;;20.91;53.65
18275;BME280;19470;49.322;7.218;2023-11-21T12:38:51;98538.38;;;20.16;54.31
18275;BME280;19470;49.322;7.218;2023-11-21T12:41:17;98537.00;;;21.07;53.34
18275;BME280;19470;49.322;7.218;2023-11-21T12:43:44;98536.66;;;20.91;53.42
18275;BME280;19470;49.322;7.218;2023-11-21T12:46:13;98538.19;;;20.43;53.99
18275;BME280;19470;49.322;7.218;2023-11-21T12:48:41;98544.25;;;19.96;56.59
18275;BME280;19470;49.322;7.218;2023-11-21T12:51:11;98543.69;;;19.12;57.77
18275;BME280;19470;49.322;7.218;2023-11-21T12:53:39;98556.09;;;18.67;59.56
18275;BME280;19470;49.322;7.218;2023-11-21T12:56:07;98552.41;;;18.63;59.34
18275;BME280;19470;49.322;7.218;2023-11-21T12:58:35;98559.16;;;17.81;61.59
18275;BME280;19470;49.322;7.218;2023-11-21T13:01:02;98557.91;;;18.11;61.52
18275;BME280;19470;49.322;7.218;2023-11-21T13:03:29;98557.34;;;18.28;60.69
18275;BME280;19470;49.322;7.218;2023-11-21T13:05:58;98557.75;;;18.35;60.75